Time;durP1;ratioP1;P1;durP2;ratioP2;P2;SDS_P1;SDS_P2;PMS_P1;PMS_P2;Temp;Humidity;BMP_temperature;BMP_pressure;BME280_temperature;BME280_humidity;BME280_pressure;Samples;Min_cycle;Max_cycle;Signal;HPM_P1;HPM_P2
2021/01/13 00:00:30;;;;;;;;;;;17.20;59.00;;;;;;2065511;28;19926;-74
2021/01/13 00:01:31;;;;;;;;;;;17.20;58.40;;;;;;2065281;28;19926;-74
2021/01/13 00:02:34;;;;;;;;;;;17.20;58.40;;;;;;2064750;28;20612;-74
2021/01/13 00:03:36;;;;;;;;;;;17.00;58.00;;;;;;2065558;28;19988;-74
2021/01/13 00:04:37;;;;;;;;;;;17.10;58.80;;;;;;2065528;28;19926;-74
2021/01/13 00:05:41;;;;;;;;;;;17.00;59.00;;;;;;2065594;28;20385;-74
2021/01/13 00:06:42;;;;;;;;;;;16.90;57.80;;;;;;2065509;28;19930;-74
2021/01/13 00:07:44;;;;;;;;;;;17.00;59.20;;;;;;2065518;28;20385;-74
2021/01/13 00:08:46;;;;;;;;;;;16.90;57.70;;;;;;2066137;28;19933;-74
2021/01/13 00:09:47;;;;;;;;;;;16.80;58.30;;;;;;2065886;28;19976;-74
2021/01/13 00:10:49;;;;;;;;;;;16.80;59.70;;;;;;2065343;28;19933;-74
2021/01/13 00:11:52;;;;;;;;;;;16.60;57.00;;;;;;2065487;28;19925;-74
2021/01/13 00:12:54;;;;;;;;;;;16.50;58.20;;;;;;2065119;28;19933;-74
2021/01/13 00:13:56;;;;;;;;;;;16.60;60.20;;;;;;2065128;28;19941;-74
2021/01/13 00:14:57;;;;;;;;;;;16.70;60.10;;;;;;2065264;28;20509;-74
2021/01/13 00:15:59;;;;;;;;;;;16.80;59.20;;;;;;2065174;28;19933;-75
2021/01/13 00:17:00;;;;;;;;;;;16.50;56.60;;;;;;2065280;28;20425;-74
2021/01/13 00:18:02;;;;;;;;;;;16.30;58.60;;;;;;2065395;28;19926;-74
2021/01/13 00:19:03;;;;;;;;;;;16.50;59.60;;;;;;2065590;28;19953;-74
2021/01/13 00:20:05;;;;;;;;;;;16.50;59.80;;;;;;2065313;28;19930;-74
2021/01/13 00:21:12;;;;;;;;;;;16.50;59.10;;;;;;2065384;28;19988;-74
2021/01/13 00:22:13;;;;;;;;;;;16.30;59.10;;;;;;2065260;28;19933;-73
2021/01/13 00:23:15;;;;;;;;;;;16.60;60.30;;;;;;2065328;28;19937;-74
2021/01/13 00:24:16;;;;;;;;;;;16.70;59.90;;;;;;2065404;28;19933;-74
2021/01/13 00:25:18;;;;;;;;;;;16.80;59.70;;;;;;2065273;28;19926;-74
2021/01/13 00:26:21;;;;;;;;;;;16.70;58.70;;;;;;2065300;28;19925;-74
2021/01/13 00:27:23;;;;;;;;;;;16.60;59.10;;;;;;2065402;28;19932;-74
2021/01/13 00:28:24;;;;;;;;;;;16.80;59.00;;;;;;2065636;28;19933;-74
2021/01/13 00:29:25;;;;;;;;;;;16.90;58.80;;;;;;2065732;28;20596;-74
2021/01/13 00:30:27;;;;;;;;;;;16.90;58.50;;;;;;2065608;28;19926;-74
2021/01/13 00:31:28;;;;;;;;;;;17.00;58.80;;;;;;2065558;28;20291;-74
2021/01/13 00:32:30;;;;;;;;;;;16.90;57.40;;;;;;2065633;28;19925;-74
2021/01/13 00:33:32;;;;;;;;;;;17.00;58.40;;;;;;2064748;28;19933;-74
2021/01/13 00:34:33;;;;;;;;;;;16.90;57.40;;;;;;2057216;28;19927;-74
2021/01/13 00:35:34;;;;;;;;;;;16.70;55.80;;;;;;2065056;28;20412;-74
2021/01/13 00:36:37;;;;;;;;;;;16.60;57.00;;;;;;2065448;28;19934;-74
2021/01/13 00:37:39;;;;;;;;;;;16.50;58.70;;;;;;2065538;28;19926;-74
2021/01/13 00:38:40;;;;;;;;;;;16.60;59.00;;;;;;2064563;28;20415;-74
2021/01/13 00:39:42;;;;;;;;;;;16.70;58.80;;;;;;2056741;28;19930;-74
2021/01/13 00:40:43;;;;;;;;;;;16.80;58.90;;;;;;2056680;28;19937;-75
2021/01/13 00:41:45;;;;;;;;;;;16.80;58.00;;;;;;2064541;28;19937;-74
2021/01/13 00:42:47;;;;;;;;;;;16.60;58.20;;;;;;2065149;28;19933;-74
2021/01/13 00:43:49;;;;;;;;;;;16.60;58.20;;;;;;2065249;28;19933;-74
2021/01/13 00:44:51;;;;;;;;;;;16.60;58.10;;;;;;2065090;28;19933;-74
2021/01/13 00:45:52;;;;;;;;;;;16.60;58.20;;;;;;2065204;28;19933;-74
2021/01/13 00:46:54;;;;;;;;;;;16.50;58.50;;;;;;2065047;28;19930;-74
2021/01/13 00:48:00;;;;;;;;;;;16.60;58.90;;;;;;2065317;28;19930;-74
2021/01/13 00:49:02;;;;;;;;;;;16.50;58.80;;;;;;2065328;28;19925;-74
2021/01/13 00:50:04;;;;;;;;;;;16.50;58.20;;;;;;2065248;28;19960;-74
2021/01/13 00:51:05;;;;;;;;;;;16.40;57.30;;;;;;2065025;28;19930;-74
2021/01/13 00:52:09;;;;;;;;;;;16.10;58.60;;;;;;2065122;28;19926;-74
2021/01/13 00:53:10;;;;;;;;;;;16.20;60.10;;;;;;2065125;28;19976;-74
2021/01/13 00:54:12;;;;;;;;;;;16.10;59.40;;;;;;2065163;28;20338;-74
2021/01/13 00:55:13;;;;;;;;;;;16.20;58.80;;;;;;2065052;28;20379;-74
2021/01/13 00:56:22;;;;;;;;;;;16.30;60.10;;;;;;2065106;28;19933;-74
2021/01/13 00:57:23;;;;;;;;;;;16.40;59.70;;;;;;2065185;28;19926;-74
2021/01/13 00:58:25;;;;;;;;;;;16.40;59.00;;;;;;2065188;28;19937;-74
2021/01/13 00:59:27;;;;;;;;;;;16.50;59.00;;;;;;2065070;28;20305;-74
2021/01/13 01:00:28;;;;;;;;;;;16.40;59.20;;;;;;2065203;28;19933;-74
2021/01/13 01:01:39;;;;;;;;;;;16.30;59.30;;;;;;2064811;28;19933;-74
2021/01/13 01:02:40;;;;;;;;;;;16.40;59.60;;;;;;2065100;28;19930;-75
2021/01/13 01:03:42;;;;;;;;;;;16.50;60.00;;;;;;2064477;28;19926;-74
2021/01/13 01:04:44;;;;;;;;;;;16.40;58.80;;;;;;2064733;28;19926;-74
2021/01/13 01:05:45;;;;;;;;;;;16.50;58.30;;;;;;2065143;28;19930;-74
2021/01/13 01:06:48;;;;;;;;;;;16.50;58.90;;;;;;2065095;28;19929;-74
2021/01/13 01:07:50;;;;;;;;;;;16.50;58.10;;;;;;2065004;28;19961;-74
2021/01/13 01:08:51;;;;;;;;;;;16.60;59.10;;;;;;2065187;28;19925;-74
2021/01/13 01:09:53;;;;;;;;;;;16.60;58.90;;;;;;2065168;28;19933;-74
2021/01/13 01:10:56;;;;;;;;;;;16.70;58.20;;;;;;2064533;28;19990;-74
2021/01/13 01:11:57;;;;;;;;;;;16.50;58.40;;;;;;2064372;28;20390;-74
2021/01/13 01:12:59;;;;;;;;;;;16.50;58.40;;;;;;2064529;28;19926;-74
2021/01/13 01:14:01;;;;;;;;;;;16.60;58.60;;;;;;2064408;28;19933;-75
2021/01/13 01:15:03;;;;;;;;;;;16.50;59.00;;;;;;2065177;28;19926;-74
2021/01/13 01:16:04;;;;;;;;;;;16.50;58.90;;;;;;2065122;28;19929;-74
2021/01/13 01:17:08;;;;;;;;;;;16.30;55.30;;;;;;2065254;28;19987;-74
2021/01/13 01:18:10;;;;;;;;;;;16.00;59.20;;;;;;2065292;28;19949;-74
2021/01/13 01:19:12;;;;;;;;;;;16.00;59.80;;;;;;2065686;28;19932;-74
2021/01/13 01:20:14;;;;;;;;;;;16.20;60.20;;;;;;2065633;28;19933;-74
2021/01/13 01:21:15;;;;;;;;;;;16.40;60.00;;;;;;2066079;28;20263;-74
2021/01/13 01:22:17;;;;;;;;;;;16.50;59.50;;;;;;2067749;28;19949;-74
2021/01/13 01:23:19;;;;;;;;;;;16.60;58.80;;;;;;2068880;28;19937;-76
2021/01/13 01:24:21;;;;;;;;;;;16.70;58.80;;;;;;2068459;28;19926;-76
2021/01/13 01:25:23;;;;;;;;;;;16.60;58.40;;;;;;2066762;28;20307;-74
2021/01/13 01:26:24;;;;;;;;;;;16.40;57.50;;;;;;2066894;28;19926;-74
2021/01/13 01:27:26;;;;;;;;;;;16.50;58.70;;;;;;2067011;28;19980;-74
2021/01/13 01:28:27;;;;;;;;;;;16.50;58.20;;;;;;2066965;28;19926;-74
2021/01/13 01:29:29;;;;;;;;;;;16.20;57.90;;;;;;2067190;28;19944;-74
2021/01/13 01:30:30;;;;;;;;;;;16.30;58.40;;;;;;2067075;28;19926;-76
2021/01/13 01:31:32;;;;;;;;;;;16.20;59.20;;;;;;2067003;28;19926;-74
2021/01/13 01:32:33;;;;;;;;;;;16.20;59.40;;;;;;2067084;28;19957;-74
2021/01/13 01:33:35;;;;;;;;;;;16.30;59.10;;;;;;2067234;28;19936;-74
2021/01/13 01:34:38;;;;;;;;;;;16.20;59.30;;;;;;2066928;28;20168;-75
2021/01/13 01:35:40;;;;;;;;;;;16.20;59.70;;;;;;2067321;28;19926;-74
2021/01/13 01:36:42;;;;;;;;;;;15.70;59.70;;;;;;2067472;28;19932;-74
2021/01/13 01:37:44;;;;;;;;;;;15.80;59.50;;;;;;2066588;28;20033;-74
2021/01/13 01:38:47;;;;;;;;;;;16.00;60.90;;;;;;2058765;28;19933;-74
2021/01/13 01:39:48;;;;;;;;;;;16.10;60.30;;;;;;2066474;28;19976;-74
2021/01/13 01:40:49;;;;;;;;;;;16.30;60.20;;;;;;2067035;28;19976;-74
2021/01/13 01:41:51;;;;;;;;;;;16.40;59.80;;;;;;2066231;28;20313;-74
2021/01/13 01:42:53;;;;;;;;;;;16.40;58.60;;;;;;2066309;28;19932;-75
2021/01/13 01:43:54;;;;;;;;;;;16.10;58.70;;;;;;2067143;28;20502;-74
2021/01/13 01:44:56;;;;;;;;;;;16.10;59.90;;;;;;2067192;28;19929;-75
2021/01/13 01:45:58;;;;;;;;;;;16.20;59.70;;;;;;2067366;28;19932;-74
2021/01/13 01:47:03;;;;;;;;;;;16.20;59.60;;;;;;2067113;28;19925;-74
2021/01/13 01:48:22;;;;;;;;;;;16.40;59.90;;;;;;2067457;28;20082;-74
2021/01/13 01:49:24;;;;;;;;;;;16.20;59.40;;;;;;2057226;28;20385;-74
2021/01/13 01:50:27;;;;;;;;;;;16.20;59.10;;;;;;2067893;28;20354;-74
2021/01/13 01:51:32;;;;;;;;;;;16.00;59.80;;;;;;2067967;28;19953;-74
2021/01/13 01:52:35;;;;;;;;;;;15.30;60.20;;;;;;2068095;28;19926;-74
2021/01/13 01:53:48;;;;;;;;;;;15.50;62.10;;;;;;2068341;28;19926;-74
2021/01/13 01:54:54;;;;;;;;;;;15.70;61.70;;;;;;2069054;28;19925;-73
2021/01/13 01:56:00;;;;;;;;;;;15.90;61.00;;;;;;2068563;28;19941;-74
2021/01/13 01:57:02;;;;;;;;;;;16.10;60.70;;;;;;2068416;28;19998;-77
2021/01/13 01:58:07;;;;;;;;;;;15.60;60.50;;;;;;2068196;28;19925;-74
2021/01/13 01:59:09;;;;;;;;;;;15.60;61.40;;;;;;2068418;28;19980;-75
2021/01/13 02:00:18;;;;;;;;;;;15.70;60.30;;;;;;2068019;28;19933;-74
2021/01/13 02:01:29;;;;;;;;;;;15.50;59.90;;;;;;2068144;28;19933;-74
2021/01/13 02:02:35;;;;;;;;;;;14.70;61.30;;;;;;2068320;28;19926;-74
2021/01/13 02:03:42;;;;;;;;;;;14.60;63.10;;;;;;2067809;28;20243;-74
2021/01/13 02:04:44;;;;;;;;;;;14.60;64.40;;;;;;2067711;28;20295;-74
2021/01/13 02:05:47;;;;;;;;;;;15.00;63.80;;;;;;2067737;28;19929;-74
2021/01/13 02:07:07;;;;;;;;;;;14.50;63.30;;;;;;2066426;28;19926;-74
2021/01/13 02:08:19;;;;;;;;;;;13.70;64.20;;;;;;2066219;28;20357;-74
2021/01/13 02:09:20;;;;;;;;;;;14.30;67.60;;;;;;2066519;28;19925;-74
2021/01/13 02:10:23;;;;;;;;;;;13.80;66.60;;;;;;2066260;28;19925;-74
2021/01/13 02:11:25;;;;;;;;;;;14.00;67.30;;;;;;2066319;28;19926;-74
2021/01/13 02:12:27;;;;;;;;;;;13.90;66.20;;;;;;2066144;28;20271;-74
2021/01/13 02:13:29;;;;;;;;;;;14.40;67.00;;;;;;2066254;28;19934;-74
2021/01/13 02:14:30;;;;;;;;;;;14.80;66.50;;;;;;2065647;28;19977;-74
2021/01/13 02:15:32;;;;;;;;;;;15.10;64.70;;;;;;2065741;28;19925;-74
2021/01/13 02:16:33;;;;;;;;;;;15.20;64.30;;;;;;2065605;28;20422;-74
2021/01/13 02:17:36;;;;;;;;;;;15.40;63.60;;;;;;2066361;28;19930;-74
2021/01/13 02:18:40;;;;;;;;;;;15.60;63.20;;;;;;2066085;28;20313;-74
2021/01/13 02:19:58;;;;;;;;;;;15.60;62.20;;;;;;2066313;28;19952;-74
2021/01/13 02:21:01;;;;;;;;;;;15.80;62.40;;;;;;2065652;28;19926;-74
2021/01/13 02:22:03;;;;;;;;;;;16.00;61.60;;;;;;2065614;28;20381;-74
2021/01/13 02:23:05;;;;;;;;;;;16.20;60.90;;;;;;2066224;28;19930;-74
2021/01/13 02:24:29;;;;;;;;;;;16.30;60.40;;;;;;2066345;28;19925;-74
2021/01/13 02:25:45;;;;;;;;;;;16.20;60.20;;;;;;2066171;28;19958;-74
2021/01/13 02:27:04;;;;;;;;;;;16.40;60.10;;;;;;2066050;28;19926;-74
2021/01/13 02:28:09;;;;;;;;;;;16.40;59.60;;;;;;2065855;28;19930;-74
2021/01/13 02:29:22;;;;;;;;;;;16.40;59.60;;;;;;2066101;28;19926;-74
2021/01/13 02:30:24;;;;;;;;;;;16.20;59.10;;;;;;2066197;28;19926;-74
2021/01/13 02:31:39;;;;;;;;;;;16.20;59.80;;;;;;2066020;28;19972;-74
2021/01/13 02:32:43;;;;;;;;;;;16.30;60.00;;;;;;2066146;28;19926;-74
2021/01/13 02:33:48;;;;;;;;;;;16.40;59.50;;;;;;2065282;28;19964;-74
2021/01/13 02:34:58;;;;;;;;;;;16.30;59.40;;;;;;2066046;28;19933;-74
2021/01/13 02:36:08;;;;;;;;;;;16.00;59.20;;;;;;2066006;28;20386;-74
2021/01/13 02:37:29;;;;;;;;;;;15.90;59.50;;;;;;2065895;28;20286;-73
2021/01/13 02:38:31;;;;;;;;;;;15.60;60.80;;;;;;2066147;28;19933;-74
2021/01/13 02:39:34;;;;;;;;;;;15.70;60.90;;;;;;2065943;28;19932;-74
2021/01/13 02:40:36;;;;;;;;;;;15.80;61.40;;;;;;2066134;28;19926;-74
2021/01/13 02:41:44;;;;;;;;;;;15.60;59.40;;;;;;2065947;28;19964;-75
2021/01/13 02:42:48;;;;;;;;;;;15.50;60.70;;;;;;2066117;28;19937;-74
2021/01/13 02:43:53;;;;;;;;;;;15.60;61.30;;;;;;2066076;28;19961;-74
2021/01/13 02:45:06;;;;;;;;;;;15.60;61.00;;;;;;2065922;28;20286;-74
2021/01/13 02:46:09;;;;;;;;;;;15.70;61.40;;;;;;2065919;28;19925;-74
2021/01/13 02:47:21;;;;;;;;;;;15.90;61.20;;;;;;2065929;28;20382;-74
2021/01/13 02:48:23;;;;;;;;;;;16.00;60.80;;;;;;2066285;28;20025;-74
2021/01/13 02:49:25;;;;;;;;;;;16.30;60.10;;;;;;2066028;28;19961;-74
2021/01/13 02:50:27;;;;;;;;;;;16.10;59.40;;;;;;2065950;28;19932;-74
2021/01/13 02:51:30;;;;;;;;;;;16.10;60.00;;;;;;2065908;28;20395;-74
2021/01/13 02:52:43;;;;;;;;;;;16.10;59.90;;;;;;2065894;28;19933;-74
2021/01/13 02:53:59;;;;;;;;;;;16.10;59.70;;;;;;2065278;28;19926;-74
2021/01/13 02:55:03;;;;;;;;;;;16.10;59.90;;;;;;2065421;28;20011;-74
2021/01/13 02:56:06;;;;;;;;;;;16.30;60.00;;;;;;2065953;28;19941;-73
2021/01/13 02:57:19;;;;;;;;;;;16.30;59.50;;;;;;2065961;28;19965;-74
2021/01/13 02:58:24;;;;;;;;;;;16.40;59.40;;;;;;2065772;28;19926;-74
2021/01/13 02:59:27;;;;;;;;;;;16.50;59.10;;;;;;2066157;28;19937;-74
2021/01/13 03:00:28;;;;;;;;;;;16.50;59.10;;;;;;2066123;28;19926;-73
2021/01/13 03:01:30;;;;;;;;;;;16.50;59.00;;;;;;2066192;28;19933;-74
2021/01/13 03:02:34;;;;;;;;;;;16.60;58.80;;;;;;2066879;28;19925;-74
2021/01/13 03:03:36;;;;;;;;;;;16.50;58.70;;;;;;2068496;28;20386;-75
2021/01/13 03:04:38;;;;;;;;;;;16.60;58.90;;;;;;2068557;28;19926;-75
2021/01/13 03:05:39;;;;;;;;;;;16.70;59.30;;;;;;2067312;28;19933;-74
2021/01/13 03:06:43;;;;;;;;;;;16.70;58.50;;;;;;2065811;28;19930;-74
2021/01/13 03:07:45;;;;;;;;;;;16.60;58.30;;;;;;2073011;28;19932;-74
2021/01/13 03:09:01;;;;;;;;;;;16.70;58.40;;;;;;2065817;28;19987;-74
2021/01/13 03:10:08;;;;;;;;;;;16.70;58.30;;;;;;2065858;28;20386;-74
2021/01/13 03:11:11;;;;;;;;;;;16.60;58.20;;;;;;2065879;28;19977;-74
2021/01/13 03:12:17;;;;;;;;;;;16.50;58.30;;;;;;2066106;28;19933;-74
2021/01/13 03:13:25;;;;;;;;;;;16.50;58.60;;;;;;2061766;28;19926;-74
2021/01/13 03:14:27;;;;;;;;;;;16.60;58.50;;;;;;2057790;28;19933;-74
2021/01/13 03:15:30;;;;;;;;;;;16.70;58.60;;;;;;2057968;28;19927;-74
2021/01/13 03:16:34;;;;;;;;;;;16.70;58.50;;;;;;2057619;28;20278;-74
2021/01/13 03:17:50;;;;;;;;;;;16.70;58.40;;;;;;2057735;28;20391;-74
2021/01/13 03:18:56;;;;;;;;;;;16.70;58.40;;;;;;2057681;28;19958;-74
2021/01/13 03:20:06;;;;;;;;;;;16.60;58.10;;;;;;2057883;28;19975;-74
2021/01/13 03:21:09;;;;;;;;;;;16.60;58.50;;;;;;2058057;28;19933;-74
2021/01/13 03:22:16;;;;;;;;;;;16.60;58.40;;;;;;2057839;28;20386;-74
2021/01/13 03:23:23;;;;;;;;;;;16.60;58.50;;;;;;2057397;28;19926;-74
2021/01/13 03:24:31;;;;;;;;;;;16.70;58.40;;;;;;2057247;28;19934;-74
2021/01/13 03:25:36;;;;;;;;;;;16.60;58.10;;;;;;2058418;28;19926;-74
2021/01/13 03:26:39;;;;;;;;;;;16.50;58.50;;;;;;2064894;28;19968;-74
2021/01/13 03:27:43;;;;;;;;;;;16.50;58.60;;;;;;2057794;28;19926;-74
2021/01/13 03:28:45;;;;;;;;;;;16.60;58.60;;;;;;2057251;28;20402;-74
2021/01/13 03:29:47;;;;;;;;;;;16.60;58.60;;;;;;2056931;28;19933;-74
2021/01/13 03:30:50;;;;;;;;;;;16.70;58.60;;;;;;2057852;28;19933;-74
2021/01/13 03:32:00;;;;;;;;;;;16.70;58.40;;;;;;2057581;28;20374;-74
2021/01/13 03:33:17;;;;;;;;;;;16.70;58.10;;;;;;2057691;28;19926;-74
2021/01/13 03:34:27;;;;;;;;;;;16.70;58.10;;;;;;2057743;28;19964;-74
2021/01/13 03:35:33;;;;;;;;;;;16.60;58.20;;;;;;2057591;28;19933;-74
2021/01/13 03:36:40;;;;;;;;;;;16.50;58.30;;;;;;2057704;28;19926;-73
2021/01/13 03:37:56;;;;;;;;;;;16.40;58.30;;;;;;2057771;28;19956;-74
2021/01/13 03:39:03;;;;;;;;;;;16.50;58.70;;;;;;2056847;28;19926;-74
2021/01/13 03:40:05;;;;;;;;;;;16.60;58.50;;;;;;2057537;28;20279;-74
2021/01/13 03:41:07;;;;;;;;;;;16.70;58.40;;;;;;2057659;28;19934;-74
2021/01/13 03:42:10;;;;;;;;;;;16.60;58.00;;;;;;2057677;28;19933;-74
2021/01/13 03:43:18;;;;;;;;;;;16.70;58.20;;;;;;2057772;28;19926;-73
2021/01/13 03:44:24;;;;;;;;;;;16.70;58.10;;;;;;2057477;28;19926;-74
2021/01/13 03:45:34;;;;;;;;;;;16.80;58.10;;;;;;2057711;28;19926;-73
2021/01/13 03:46:36;;;;;;;;;;;16.60;58.00;;;;;;2062085;28;19972;-75
2021/01/13 03:47:58;;;;;;;;;;;16.60;58.20;;;;;;2065630;28;19926;-74
2021/01/13 03:49:01;;;;;;;;;;;16.60;58.30;;;;;;2065697;28;19949;-74
2021/01/13 03:50:11;;;;;;;;;;;16.80;58.20;;;;;;2065496;28;19925;-73
2021/01/13 03:51:30;;;;;;;;;;;16.60;58.00;;;;;;2065689;28;19925;-74
2021/01/13 03:52:37;;;;;;;;;;;16.40;58.50;;;;;;2065340;28;19925;-74
2021/01/13 03:53:39;;;;;;;;;;;16.30;58.50;;;;;;2065577;28;20297;-74
2021/01/13 03:54:43;;;;;;;;;;;16.30;58.80;;;;;;2065662;28;19926;-74
2021/01/13 03:55:44;;;;;;;;;;;16.30;58.80;;;;;;2065752;28;19933;-74
2021/01/13 03:56:54;;;;;;;;;;;16.50;58.90;;;;;;2065372;28;20381;-75
2021/01/13 03:58:14;;;;;;;;;;;16.50;58.60;;;;;;2065679;28;19937;-73
2021/01/13 03:59:20;;;;;;;;;;;16.40;58.10;;;;;;2065712;28;19925;-74
2021/01/13 04:00:22;;;;;;;;;;;16.30;59.50;;;;;;2065785;28;19925;-73
2021/01/13 04:01:38;;;;;;;;;;;16.10;58.80;;;;;;2064926;28;19926;-74
2021/01/13 04:02:49;;;;;;;;;;;16.20;59.10;;;;;;2064943;28;20000;-74
2021/01/13 04:03:54;;;;;;;;;;;16.30;59.30;;;;;;2064819;28;20341;-74
2021/01/13 04:05:00;;;;;;;;;;;16.40;59.10;;;;;;2057630;28;19933;-73
2021/01/13 04:06:04;;;;;;;;;;;16.60;58.80;;;;;;2065076;28;19926;-74
2021/01/13 04:07:08;;;;;;;;;;;16.50;58.60;;;;;;2065675;28;19937;-74
2021/01/13 04:08:09;;;;;;;;;;;16.40;58.50;;;;;;2065641;28;19973;-73
2021/01/13 04:09:11;;;;;;;;;;;16.30;58.90;;;;;;2064929;28;20382;-74
2021/01/13 04:10:13;;;;;;;;;;;16.40;59.00;;;;;;2065223;28;19925;-74
2021/01/13 04:11:16;;;;;;;;;;;16.40;58.80;;;;;;2065967;28;20427;-74
2021/01/13 04:12:21;;;;;;;;;;;16.50;58.80;;;;;;2065968;28;19956;-74
2021/01/13 04:13:32;;;;;;;;;;;16.40;58.60;;;;;;2065692;28;19926;-74
2021/01/13 04:14:43;;;;;;;;;;;16.40;58.90;;;;;;2065776;28;19933;-74
2021/01/13 04:15:49;;;;;;;;;;;16.40;58.50;;;;;;2066063;28;19933;-74
2021/01/13 04:16:51;;;;;;;;;;;16.40;59.00;;;;;;2065909;28;19926;-74
2021/01/13 04:17:54;;;;;;;;;;;16.30;59.00;;;;;;2065820;28;19932;-74
2021/01/13 04:18:55;;;;;;;;;;;16.30;59.00;;;;;;2065812;28;19949;-75
2021/01/13 04:19:57;;;;;;;;;;;16.00;58.50;;;;;;2065430;28;19945;-74
2021/01/13 04:20:59;;;;;;;;;;;15.70;60.70;;;;;;2066002;28;19932;-74
2021/01/13 04:22:02;;;;;;;;;;;16.00;60.60;;;;;;2066401;28;20289;-74
2021/01/13 04:23:04;;;;;;;;;;;16.10;60.10;;;;;;2066222;28;19926;-74
2021/01/13 04:24:06;;;;;;;;;;;16.20;59.70;;;;;;2066282;28;19930;-75
2021/01/13 04:25:08;;;;;;;;;;;16.20;59.60;;;;;;2066960;28;20302;-74
2021/01/13 04:26:10;;;;;;;;;;;16.20;59.80;;;;;;2066761;28;19926;-74
2021/01/13 04:27:13;;;;;;;;;;;15.80;59.30;;;;;;2066688;28;19933;-74
2021/01/13 04:28:14;;;;;;;;;;;15.80;60.80;;;;;;2066686;28;20343;-74
2021/01/13 04:29:16;;;;;;;;;;;15.90;60.50;;;;;;2066930;28;19930;-75
2021/01/13 04:30:18;;;;;;;;;;;15.80;61.00;;;;;;2066435;28;20417;-74
2021/01/13 04:31:20;;;;;;;;;;;15.90;60.90;;;;;;2066862;28;19926;-74
2021/01/13 04:32:22;;;;;;;;;;;15.90;60.90;;;;;;2066759;28;19995;-74
2021/01/13 04:33:24;;;;;;;;;;;15.60;60.80;;;;;;2066860;28;19925;-74
2021/01/13 04:34:26;;;;;;;;;;;15.60;61.60;;;;;;2066320;28;19930;-74
2021/01/13 04:35:27;;;;;;;;;;;15.60;61.30;;;;;;2066532;28;19965;-74
2021/01/13 04:36:31;;;;;;;;;;;15.80;61.40;;;;;;2066111;28;19968;-74
2021/01/13 04:37:34;;;;;;;;;;;15.80;60.90;;;;;;2064827;28;19926;-74
2021/01/13 04:38:35;;;;;;;;;;;16.00;60.70;;;;;;2065594;28;19925;-74
2021/01/13 04:39:38;;;;;;;;;;;16.10;60.40;;;;;;2065618;28;19926;-74
2021/01/13 04:40:40;;;;;;;;;;;16.10;60.20;;;;;;2065424;28;20305;-74
2021/01/13 04:41:55;;;;;;;;;;;16.30;59.90;;;;;;2065579;28;19961;-74
2021/01/13 04:43:01;;;;;;;;;;;16.30;59.50;;;;;;2065730;28;19926;-75
2021/01/13 04:44:02;;;;;;;;;;;16.20;59.50;;;;;;2067333;28;19937;-75
2021/01/13 04:45:05;;;;;;;;;;;16.30;59.50;;;;;;2068358;28;19932;-75
2021/01/13 04:46:15;;;;;;;;;;;16.30;59.40;;;;;;2067321;28;19933;-74
2021/01/13 04:47:17;;;;;;;;;;;16.30;59.30;;;;;;2065740;28;20290;-74
2021/01/13 04:48:19;;;;;;;;;;;16.40;59.20;;;;;;2065243;28;19932;-74
2021/01/13 04:49:22;;;;;;;;;;;16.50;58.90;;;;;;2065390;28;20009;-74
2021/01/13 04:50:25;;;;;;;;;;;16.50;58.90;;;;;;2065585;28;20275;-74
2021/01/13 04:51:26;;;;;;;;;;;16.50;58.80;;;;;;2065647;28;19949;-74
2021/01/13 04:52:30;;;;;;;;;;;16.50;58.80;;;;;;2065487;28;19926;-74
2021/01/13 04:53:33;;;;;;;;;;;16.40;58.80;;;;;;2065441;28;19933;-74
2021/01/13 04:54:36;;;;;;;;;;;16.40;58.90;;;;;;2065518;28;19933;-74
2021/01/13 04:55:45;;;;;;;;;;;16.40;58.90;;;;;;2065298;28;19992;-74
2021/01/13 04:57:07;;;;;;;;;;;16.40;59.00;;;;;;2064800;28;19936;-74
2021/01/13 04:58:29;;;;;;;;;;;16.40;59.10;;;;;;2065390;28;19926;-74
2021/01/13 04:59:55;;;;;;;;;;;16.50;59.00;;;;;;2048091;28;19926;-73
2021/01/13 05:01:06;;;;;;;;;;;16.50;59.10;;;;;;2065197;28;20301;-74
2021/01/13 05:02:08;;;;;;;;;;;15.70;60.30;;;;;;2065417;28;19926;-74
2021/01/13 05:03:28;;;;;;;;;;;16.00;60.60;;;;;;2065502;28;19925;-74
2021/01/13 05:04:44;;;;;;;;;;;16.10;60.50;;;;;;2065145;28;19930;-74
2021/01/13 05:05:49;;;;;;;;;;;16.40;59.90;;;;;;2056592;28;20216;-74
2021/01/13 05:07:06;;;;;;;;;;;16.30;59.80;;;;;;2065100;28;19926;-74
2021/01/13 05:08:27;;;;;;;;;;;16.20;59.70;;;;;;2065317;28;19933;-74
2021/01/13 05:09:34;;;;;;;;;;;16.30;59.70;;;;;;2065429;28;19925;-74
2021/01/13 05:10:40;;;;;;;;;;;16.40;59.50;;;;;;2065561;28;19926;-74
2021/01/13 05:11:42;;;;;;;;;;;16.40;59.40;;;;;;2065236;28;19933;-74
2021/01/13 05:12:45;;;;;;;;;;;16.50;59.20;;;;;;2065260;28;20252;-74
2021/01/13 05:13:46;;;;;;;;;;;16.60;59.00;;;;;;2064583;28;19936;-74
2021/01/13 05:14:51;;;;;;;;;;;16.70;58.80;;;;;;2064832;28;19932;-74
2021/01/13 05:15:53;;;;;;;;;;;16.60;58.70;;;;;;2065350;28;19926;-74
2021/01/13 05:17:02;;;;;;;;;;;16.60;58.80;;;;;;2065399;28;20297;-74
2021/01/13 05:18:07;;;;;;;;;;;16.50;58.90;;;;;;2065350;28;19933;-74
2021/01/13 05:19:18;;;;;;;;;;;16.50;59.10;;;;;;2065815;28;19948;-74
2021/01/13 05:20:23;;;;;;;;;;;16.60;58.90;;;;;;2065615;28;19980;-75
2021/01/13 05:21:26;;;;;;;;;;;16.80;58.70;;;;;;2065851;28;19966;-75
2021/01/13 05:22:31;;;;;;;;;;;16.80;58.40;;;;;;2066321;28;19926;-75
2021/01/13 05:23:34;;;;;;;;;;;16.90;58.30;;;;;;2066151;28;19925;-75
2021/01/13 05:24:39;;;;;;;;;;;16.90;58.20;;;;;;2065835;28;19926;-74
2021/01/13 05:25:48;;;;;;;;;;;16.80;58.30;;;;;;2065177;28;20080;-74
2021/01/13 05:26:57;;;;;;;;;;;16.80;58.70;;;;;;2065366;28;19926;-75
2021/01/13 05:28:06;;;;;;;;;;;16.60;58.50;;;;;;2064983;28;19948;-75
2021/01/13 05:29:20;;;;;;;;;;;16.30;59.00;;;;;;2065234;28;19926;-75
2021/01/13 05:30:23;;;;;;;;;;;16.60;59.10;;;;;;2064996;28;20017;-75
2021/01/13 05:31:24;;;;;;;;;;;16.70;58.90;;;;;;2065168;28;20302;-75
2021/01/13 05:32:27;;;;;;;;;;;16.80;58.70;;;;;;2065100;28;19930;-72
2021/01/13 05:33:32;;;;;;;;;;;16.70;58.70;;;;;;2065250;28;19933;-75
2021/01/13 05:34:34;;;;;;;;;;;16.60;58.90;;;;;;2065073;28;19933;-72
2021/01/13 05:35:37;;;;;;;;;;;16.70;58.90;;;;;;2065219;28;20559;-73
2021/01/13 05:36:44;;;;;;;;;;;16.70;58.80;;;;;;2065260;28;19925;-75
2021/01/13 05:37:48;;;;;;;;;;;16.60;59.00;;;;;;2065502;28;20382;-72
2021/01/13 05:39:05;;;;;;;;;;;16.60;59.20;;;;;;2065204;28;19926;-74
2021/01/13 05:40:08;;;;;;;;;;;16.70;58.90;;;;;;2065404;28;19929;-73
2021/01/13 05:41:10;;;;;;;;;;;16.50;58.80;;;;;;2065225;28;20534;-73
2021/01/13 05:42:14;;;;;;;;;;;16.40;59.40;;;;;;2065336;28;19926;-75
2021/01/13 05:43:17;;;;;;;;;;;16.50;59.30;;;;;;2065319;28;19961;-73
2021/01/13 05:44:21;;;;;;;;;;;16.40;59.40;;;;;;2065414;28;19933;-75
2021/01/13 05:45:24;;;;;;;;;;;16.40;59.50;;;;;;2065688;28;19949;-75
2021/01/13 05:46:32;;;;;;;;;;;16.50;59.50;;;;;;2065507;28;19980;-75
2021/01/13 05:47:53;;;;;;;;;;;16.40;59.50;;;;;;2065653;28;19926;-74
2021/01/13 05:48:55;;;;;;;;;;;16.70;59.30;;;;;;2066377;28;19926;-75
2021/01/13 05:49:57;;;;;;;;;;;16.70;59.00;;;;;;2066475;28;19930;-75
2021/01/13 05:50:59;;;;;;;;;;;16.70;59.00;;;;;;2066437;28;20405;-75
2021/01/13 05:52:05;;;;;;;;;;;16.60;58.90;;;;;;2068187;28;20404;-75
2021/01/13 05:53:07;;;;;;;;;;;16.00;59.60;;;;;;2068203;28;20389;-74
2021/01/13 05:54:12;;;;;;;;;;;16.10;60.90;;;;;;2068615;28;19957;-75
2021/01/13 05:55:15;;;;;;;;;;;16.00;60.90;;;;;;2069067;28;19968;-75
2021/01/13 05:56:17;;;;;;;;;;;16.20;60.70;;;;;;2069400;28;19930;-74
2021/01/13 05:57:20;;;;;;;;;;;16.30;60.30;;;;;;2068618;28;20185;-75
2021/01/13 05:58:25;;;;;;;;;;;16.50;59.90;;;;;;2068548;28;19937;-74
2021/01/13 05:59:30;;;;;;;;;;;16.50;59.60;;;;;;2068468;28;19937;-73
2021/01/13 06:00:35;;;;;;;;;;;16.60;59.50;;;;;;2068680;28;19933;-73
2021/01/13 06:01:42;;;;;;;;;;;16.60;59.30;;;;;;2068495;28;19937;-74
2021/01/13 06:02:46;;;;;;;;;;;16.50;59.20;;;;;;2067940;28;19926;-73
2021/01/13 06:03:49;;;;;;;;;;;16.50;59.40;;;;;;2067371;28;19926;-73
2021/01/13 06:04:51;;;;;;;;;;;16.60;59.40;;;;;;2065332;28;19926;-72
2021/01/13 06:05:54;;;;;;;;;;;16.70;59.10;;;;;;2065505;28;20290;-74
2021/01/13 06:07:00;;;;;;;;;;;16.80;58.90;;;;;;2065242;28;19933;-73
2021/01/13 06:08:03;;;;;;;;;;;16.70;58.80;;;;;;2065644;28;19949;-74
2021/01/13 06:09:05;;;;;;;;;;;16.80;58.80;;;;;;2066033;28;20303;-73
2021/01/13 06:10:19;;;;;;;;;;;16.70;59.00;;;;;;2067275;28;19926;-72
2021/01/13 06:11:23;;;;;;;;;;;16.00;60.00;;;;;;2067509;28;19926;-73
2021/01/13 06:12:25;;;;;;;;;;;16.00;60.30;;;;;;2067350;28;19926;-73
2021/01/13 06:13:27;;;;;;;;;;;16.10;60.50;;;;;;2067180;28;20001;-73
2021/01/13 06:14:30;;;;;;;;;;;16.30;60.20;;;;;;2067205;28;19933;-73
2021/01/13 06:15:33;;;;;;;;;;;16.10;60.10;;;;;;2067269;28;19926;-73
2021/01/13 06:16:35;;;;;;;;;;;16.30;60.30;;;;;;2067418;28;19926;-73